Time;durP1;ratioP1;P1;durP2;ratioP2;P2;SDS_P1;SDS_P2;PMS_P1;PMS_P2;Temp;Humidity;BMP_temperature;BMP_pressure;BME280_temperature;BME280_humidity;BME280_pressure;Samples;Min_cycle;Max_cycle;Signal;HPM_P1;HPM_P2
2023/08/24 00:02:06;;;;;;;9.33;8.53;;;23.90;45.40;;;;;;5133026;27;20404;-52
2023/08/24 00:04:33;;;;;;;9.20;8.40;;;23.80;45.40;;;;;;5132796;27;20894;-55
2023/08/24 00:06:59;;;;;;;9.47;8.60;;;23.90;45.50;;;;;;5133099;27;20458;-51
2023/08/24 00:09:26;;;;;;;9.70;8.90;;;23.80;45.30;;;;;;5133149;27;20398;-54
2023/08/24 00:11:53;;;;;;;10.10;8.53;;;23.80;45.40;;;;;;5132965;27;20786;-51
2023/08/24 00:14:19;;;;;;;10.50;9.40;;;23.70;45.70;;;;;;5132837;27;20447;-53
2023/08/24 00:16:44;;;;;;;8.13;7.43;;;23.70;45.80;;;;;;5133191;27;20476;-56
2023/08/24 00:19:10;;;;;;;8.73;8.03;;;23.70;45.80;;;;;;5133107;27;20404;-53
2023/08/24 00:21:36;;;;;;;10.23;9.33;;;23.60;45.70;;;;;;5132887;27;20532;-52
2023/08/24 00:24:02;;;;;;;9.73;8.83;;;23.60;45.70;;;;;;5132875;27;20408;-55
2023/08/24 00:26:28;;;;;;;9.47;8.67;;;23.60;45.80;;;;;;5132548;28;20191;-55
2023/08/24 00:28:53;;;;;;;10.87;9.00;;;23.60;45.70;;;;;;5133105;27;20209;-51
2023/08/24 00:31:19;;;;;;;10.13;9.23;;;23.60;45.70;;;;;;5133105;28;20198;-53
2023/08/24 00:33:45;;;;;;;8.73;7.97;;;23.50;45.80;;;;;;5132681;27;20324;-56
2023/08/24 00:36:11;;;;;;;11.57;9.30;;;23.50;45.90;;;;;;5132482;28;20214;-52
2023/08/24 00:38:36;;;;;;;10.30;9.30;;;23.50;46.50;;;;;;5132754;27;20277;-54
2023/08/24 00:41:02;;;;;;;11.10;9.70;;;23.50;45.90;;;;;;5132603;28;20169;-56
2023/08/24 00:43:28;;;;;;;9.20;8.33;;;23.40;45.90;;;;;;5132944;27;20674;-50
2023/08/24 00:45:59;;;;;;;10.63;8.17;;;23.40;46.00;;;;;;5132657;27;20186;-50
2023/08/24 00:48:25;;;;;;;10.30;9.00;;;23.40;46.00;;;;;;5132673;27;20865;-55
2023/08/24 00:51:02;;;;;;;10.53;8.63;;;23.40;46.20;;;;;;5132718;27;20481;-56
2023/08/24 00:53:29;;;;;;;9.67;8.47;;;23.40;46.10;;;;;;5132556;27;20402;-53
2023/08/24 00:55:56;;;;;;;8.83;8.00;;;23.40;46.10;;;;;;5132235;27;20420;-53
2023/08/24 00:58:22;;;;;;;7.80;7.13;;;23.40;46.20;;;;;;5135947;27;20790;-51
2023/08/24 01:00:55;;;;;;;8.07;7.37;;;23.40;46.20;;;;;;5136380;27;20922;-52
2023/08/24 01:03:24;;;;;;;9.53;8.37;;;23.40;46.00;;;;;;5136426;27;20398;-56
2023/08/24 01:05:51;;;;;;;7.77;7.03;;;23.40;46.00;;;;;;5136163;27;20428;-55
2023/08/24 01:08:17;;;;;;;8.87;8.10;;;23.30;46.10;;;;;;5136216;27;20770;-51
2023/08/24 01:10:58;;;;;;;9.03;8.23;;;23.30;46.20;;;;;;5136504;27;20412;-53
2023/08/24 01:13:41;;;;;;;7.00;6.50;;;23.30;46.20;;;;;;5136228;27;20404;-52
2023/08/24 01:16:18;;;;;;;7.93;7.23;;;23.30;46.30;;;;;;5135958;27;20428;-52
2023/08/24 01:18:45;;;;;;;9.13;8.23;;;23.30;46.40;;;;;;5136227;27;20404;-53
2023/08/24 01:21:12;;;;;;;8.67;7.87;;;23.30;46.40;;;;;;5136101;27;20404;-53
2023/08/24 01:23:53;;;;;;;8.63;7.93;;;23.30;46.30;;;;;;5134837;27;20412;-51
2023/08/24 01:26:20;;;;;;;7.57;6.57;;;23.30;46.30;;;;;;5135826;27;20515;-56
2023/08/24 01:28:47;;;;;;;10.10;7.20;;;23.20;46.10;;;;;;5135920;27;20405;-54
2023/08/24 01:31:16;;;;;;;10.00;8.03;;;23.30;46.30;;;;;;5136069;27;20447;-52
2023/08/24 01:33:43;;;;;;;7.50;6.90;;;23.30;46.40;;;;;;5136080;27;20775;-52
2023/08/24 01:36:12;;;;;;;7.77;7.07;;;23.20;46.30;;;;;;5135478;27;20447;-55
2023/08/24 01:38:38;;;;;;;7.80;7.10;;;23.30;46.40;;;;;;5135775;27;20482;-51
2023/08/24 01:41:20;;;;;;;7.97;7.37;;;23.20;46.30;;;;;;5135684;27;20414;-55
2023/08/24 01:43:49;;;;;;;7.73;6.97;;;23.20;46.30;;;;;;5135547;27;20426;-52
2023/08/24 01:46:17;;;;;;;7.90;6.40;;;23.20;46.40;;;;;;5135489;27;20492;-56
2023/08/24 01:48:45;;;;;;;7.50;6.83;;;23.20;46.50;;;;;;5135569;27;20404;-56
2023/08/24 01:51:11;;;;;;;8.00;7.30;;;23.20;46.50;;;;;;5135548;27;20487;-52
2023/08/24 01:53:39;;;;;;;7.63;7.03;;;23.20;46.30;;;;;;5135505;27;20436;-55
2023/08/24 01:56:12;;;;;;;8.00;7.20;;;23.20;46.20;;;;;;5135038;27;20426;-52
2023/08/24 01:58:38;;;;;;;8.20;6.83;;;23.20;46.40;;;;;;5135660;27;20461;-51
2023/08/24 02:01:08;;;;;;;6.60;6.00;;;23.20;46.50;;;;;;5135607;27;20401;-53
2023/08/24 02:03:34;;;;;;;7.77;7.03;;;23.20;46.50;;;;;;5135545;27;20400;-55
2023/08/24 02:06:00;;;;;;;7.80;7.00;;;23.20;46.50;;;;;;5134959;27;20762;-53
2023/08/24 02:08:26;;;;;;;7.53;6.93;;;23.10;46.50;;;;;;5135195;27;20396;-51
2023/08/24 02:10:52;;;;;;;7.33;6.67;;;23.10;46.60;;;;;;5135060;27;20204;-55
2023/08/24 02:13:17;;;;;;;8.10;7.23;;;23.00;46.50;;;;;;5135306;27;20167;-52
2023/08/24 02:15:43;;;;;;;7.40;6.70;;;23.00;46.50;;;;;;5134747;27;20229;-51
2023/08/24 02:18:09;;;;;;;8.37;7.10;;;23.00;46.40;;;;;;5135014;27;20178;-55
2023/08/24 02:20:36;;;;;;;7.70;7.03;;;22.90;46.50;;;;;;5135024;27;20211;-55
2023/08/24 02:23:02;;;;;;;7.90;7.20;;;22.90;46.60;;;;;;5135277;27;20170;-52
2023/08/24 02:25:28;;;;;;;8.90;7.47;;;22.90;46.60;;;;;;5134825;27;20470;-54
2023/08/24 02:27:54;;;;;;;7.97;7.20;;;22.80;46.60;;;;;;5134797;27;20882;-51
2023/08/24 02:30:19;;;;;;;6.97;6.43;;;22.80;46.80;;;;;;5134774;27;20427;-56
2023/08/24 02:32:45;;;;;;;8.10;7.40;;;22.80;46.80;;;;;;5134699;27;20178;-57
2023/08/24 02:35:11;;;;;;;12.63;8.33;;;22.90;46.90;;;;;;5134392;27;20210;-52
2023/08/24 02:37:37;;;;;;;7.50;6.90;;;22.80;46.70;;;;;;5134918;27;20190;-56
2023/08/24 02:40:03;;;;;;;8.27;6.50;;;22.80;46.70;;;;;;5134455;27;20587;-52
2023/08/24 02:42:31;;;;;;;8.40;7.70;;;22.80;46.70;;;;;;5134681;27;20179;-55
2023/08/24 02:44:57;;;;;;;7.97;7.37;;;22.80;46.90;;;;;;5134505;27;20417;-54
2023/08/24 02:47:23;;;;;;;8.93;8.23;;;22.70;46.80;;;;;;5134468;27;20425;-51
2023/08/24 02:49:48;;;;;;;8.50;7.70;;;22.70;46.90;;;;;;5134594;27;20686;-56
2023/08/24 02:52:14;;;;;;;7.57;6.97;;;22.70;46.80;;;;;;5134267;27;20640;-51
2023/08/24 02:54:40;;;;;;;7.50;6.80;;;22.70;46.90;;;;;;5133889;27;20206;-55
2023/08/24 02:57:06;;;;;;;8.07;7.37;;;22.70;47.00;;;;;;5134365;27;20191;-54
2023/08/24 02:59:31;;;;;;;8.37;6.83;;;22.70;47.00;;;;;;5134146;27;20163;-52
2023/08/24 03:01:58;;;;;;;7.50;6.90;;;22.70;46.90;;;;;;5134441;27;20223;-55
2023/08/24 03:04:24;;;;;;;7.83;7.13;;;22.60;46.70;;;;;;5133861;27;20414;-56
2023/08/24 03:06:49;;;;;;;7.90;7.23;;;22.60;47.00;;;;;;5134019;27;20420;-51
2023/08/24 03:09:15;;;;;;;8.40;7.57;;;22.60;46.90;;;;;;5133855;27;20400;-53
2023/08/24 03:11:41;;;;;;;8.10;7.30;;;22.50;47.10;;;;;;5133904;27;20179;-54
2023/08/24 03:14:07;;;;;;;8.13;7.43;;;22.50;47.20;;;;;;5133676;27;20226;-51
2023/08/24 03:16:33;;;;;;;9.47;8.57;;;22.60;47.10;;;;;;5133732;27;20424;-50
2023/08/24 03:18:59;;;;;;;7.90;7.20;;;22.60;47.10;;;;;;5133870;27;20163;-54
2023/08/24 03:21:25;;;;;;;10.17;7.10;;;22.60;47.30;;;;;;5133283;27;20402;-53
2023/08/24 03:23:50;;;;;;;7.90;7.10;;;22.50;47.30;;;;;;5133926;27;20185;-50
2023/08/24 03:26:16;;;;;;;7.77;7.13;;;22.60;47.30;;;;;;5133438;27;20212;-52
2023/08/24 03:28:43;;;;;;;8.77;7.37;;;22.50;47.20;;;;;;5133869;27;20181;-53
2023/08/24 03:31:08;;;;;;;8.77;7.97;;;22.60;47.10;;;;;;5133514;27;20407;-52
2023/08/24 03:33:34;;;;;;;8.87;7.23;;;22.50;47.10;;;;;;5133438;27;20490;-56
2023/08/24 03:36:01;;;;;;;7.87;7.23;;;22.50;47.10;;;;;;5133071;27;20206;-55
2023/08/24 03:38:27;;;;;;;8.07;7.47;;;22.50;47.10;;;;;;5133664;27;20194;-52
2023/08/24 03:41:00;;;;;;;8.97;7.60;;;22.40;47.20;;;;;;5133265;27;20404;-51
2023/08/24 03:43:26;;;;;;;8.00;7.30;;;22.40;47.20;;;;;;5133584;27;20408;-54
2023/08/24 03:45:52;;;;;;;8.10;7.40;;;22.40;47.20;;;;;;5132979;27;20430;-54
2023/08/24 03:48:17;;;;;;;8.70;8.00;;;22.40;47.20;;;;;;5133712;27;20171;-51
2023/08/24 03:50:43;;;;;;;8.60;7.90;;;22.40;47.30;;;;;;5133080;27;20167;-55
2023/08/24 03:53:09;;;;;;;7.83;7.23;;;22.40;47.40;;;;;;5133207;27;20635;-55
2023/08/24 03:55:35;;;;;;;7.90;7.27;;;22.40;47.40;;;;;;5132884;27;20240;-50
2023/08/24 03:58:00;;;;;;;7.77;7.10;;;22.40;47.30;;;;;;5133496;27;20170;-54
2023/08/24 04:00:26;;;;;;;8.67;7.80;;;22.30;47.30;;;;;;5133414;27;20639;-53
2023/08/24 04:02:52;;;;;;;8.50;7.80;;;22.30;47.40;;;;;;5133184;27;20642;-52
2023/08/24 04:05:18;;;;;;;8.10;7.47;;;22.30;47.40;;;;;;5132697;27;20178;-51
2023/08/24 04:07:43;;;;;;;11.30;8.47;;;22.30;47.40;;;;;;5133305;27;20171;-58
2023/08/24 04:10:11;;;;;;;9.50;7.90;;;22.30;47.40;;;;;;5132958;27;20956;-57
2023/08/24 04:12:36;;;;;;;9.33;8.43;;;22.20;47.40;;;;;;5133005;27;20250;-54
2023/08/24 04:15:03;;;;;;;9.17;8.40;;;22.20;48.10;;;;;;5131385;28;20544;-53
2023/08/24 04:17:29;;;;;;;9.63;8.73;;;22.20;47.40;;;;;;5132953;27;20243;-52
2023/08/24 04:19:54;;;;;;;9.77;8.97;;;22.20;47.50;;;;;;5132782;27;20400;-53
2023/08/24 04:22:20;;;;;;;8.10;7.30;;;22.10;47.70;;;;;;5133095;28;20178;-54
2023/08/24 04:24:46;;;;;;;11.97;8.77;;;22.20;47.90;;;;;;5132572;27;20171;-52
2023/08/24 04:27:11;;;;;;;8.83;8.10;;;22.20;48.00;;;;;;5132811;27;20268;-50
2023/08/24 04:29:37;;;;;;;7.57;6.97;;;22.20;48.10;;;;;;5132791;28;20166;-52
2023/08/24 04:32:03;;;;;;;8.10;7.43;;;22.20;48.00;;;;;;5134172;27;20174;-55
2023/08/24 04:34:29;;;;;;;12.13;9.50;;;22.30;48.00;;;;;;5136523;27;20198;-52
2023/08/24 04:36:55;;;;;;;9.17;7.50;;;22.30;48.00;;;;;;5137150;27;20932;-56
2023/08/24 04:39:21;;;;;;;9.10;8.13;;;22.30;48.00;;;;;;5137185;27;20636;-55
2023/08/24 04:41:46;;;;;;;9.90;9.10;;;22.30;47.90;;;;;;5136873;27;20395;-52
2023/08/24 04:44:12;;;;;;;10.80;9.10;;;22.30;47.80;;;;;;5135476;27;20169;-53
2023/08/24 04:46:38;;;;;;;9.07;8.27;;;22.30;47.80;;;;;;5137009;27;20555;-58
2023/08/24 04:49:04;;;;;;;8.43;7.23;;;22.30;47.90;;;;;;5136674;27;20175;-52
2023/08/24 04:51:29;;;;;;;7.47;6.77;;;22.30;47.90;;;;;;5136660;27;20249;-55
2023/08/24 04:53:55;;;;;;;9.60;8.70;;;22.30;47.90;;;;;;5136523;27;20265;-53
2023/08/24 04:56:21;;;;;;;8.83;8.13;;;22.30;48.00;;;;;;5136310;27;20245;-56
2023/08/24 04:58:57;;;;;;;8.67;7.87;;;22.40;48.30;;;;;;5136619;27;20400;-52
2023/08/24 05:01:26;;;;;;;9.47;8.70;;;22.50;48.00;;;;;;5136735;27;20302;-55
2023/08/24 05:03:52;;;;;;;8.77;7.97;;;22.50;48.00;;;;;;5136605;27;20408;-53
2023/08/24 05:06:19;;;;;;;10.00;9.20;;;22.50;48.00;;;;;;5136119;27;20428;-52
2023/08/24 05:08:45;;;;;;;9.23;8.33;;;22.60;48.20;;;;;;5136443;27;20400;-55
2023/08/24 05:11:16;;;;;;;9.27;8.40;;;22.60;48.20;;;;;;5136389;27;20770;-51
2023/08/24 05:13:42;;;;;;;9.87;8.97;;;22.70;48.40;;;;;;5136282;27;20384;-57
2023/08/24 05:16:09;;;;;;;10.50;9.37;;;22.80;47.90;;;;;;5135816;27;20489;-56
2023/08/24 05:18:38;;;;;;;9.07;8.37;;;22.90;47.80;;;;;;5136215;27;20177;-51
2023/08/24 05:21:04;;;;;;;14.23;8.53;;;22.90;47.90;;;;;;5136197;27;20393;-53
2023/08/24 05:23:34;;;;;;;10.23;8.80;;;23.00;47.70;;;;;;5136231;27;20404;-54
2023/08/24 05:26:02;;;;;;;9.00;8.13;;;23.10;47.50;;;;;;5135775;27;20422;-55
2023/08/24 05:28:29;;;;;;;8.13;7.43;;;23.10;47.40;;;;;;5136297;27;20443;-51
2023/08/24 05:30:55;;;;;;;9.00;8.20;;;23.20;47.20;;;;;;5135906;27;20495;-57
2023/08/24 05:33:22;;;;;;;9.00;8.13;;;23.30;47.10;;;;;;5135890;27;20917;-56
2023/08/24 05:35:49;;;;;;;9.23;8.33;;;23.30;46.90;;;;;;5134517;27;20497;-52
2023/08/24 05:38:15;;;;;;;9.30;8.20;;;23.40;46.90;;;;;;5134755;27;20430;-55
2023/08/24 05:40:43;;;;;;;8.47;7.77;;;23.40;46.30;;;;;;5133261;28;20404;-55
2023/08/24 05:43:12;;;;;;;9.40;8.50;;;23.50;46.40;;;;;;5133987;27;20404;-53
2023/08/24 05:45:39;;;;;;;19.00;8.37;;;23.50;46.30;;;;;;5134429;27;20420;-56
2023/08/24 05:48:06;;;;;;;14.07;8.13;;;23.60;46.10;;;;;;5134631;27;20415;-57
2023/08/24 05:50:32;;;;;;;9.27;8.37;;;23.60;46.10;;;;;;5134723;27;20400;-52
2023/08/24 05:52:57;;;;;;;9.80;7.57;;;23.70;46.10;;;;;;5134638;28;20430;-52
2023/08/24 05:55:23;;;;;;;8.87;7.93;;;23.70;46.00;;;;;;5133968;27;20202;-56
2023/08/24 05:57:49;;;;;;;8.67;7.93;;;23.80;46.10;;;;;;5134234;28;20238;-52
2023/08/24 06:00:15;;;;;;;8.17;7.47;;;23.90;45.90;;;;;;5134230;27;20634;-53
2023/08/24 06:02:41;;;;;;;12.43;8.10;;;24.00;45.70;;;;;;5134276;27;20194;-56
2023/08/24 06:05:07;;;;;;;9.53;8.60;;;24.00;45.60;;;;;;5133994;27;20459;-50
2023/08/24 06:07:34;;;;;;;10.80;7.80;;;24.10;45.20;;;;;;5133977;27;20706;-55
2023/08/24 06:10:00;;;;;;;7.97;7.37;;;24.20;45.10;;;;;;5134118;27;20407;-51
2023/08/24 06:12:25;;;;;;;9.07;7.90;;;24.30;45.30;;;;;;5133993;28;20757;-51
2023/08/24 06:14:51;;;;;;;10.83;7.80;;;24.40;45.30;;;;;;5133971;28;20218;-57
2023/08/24 06:17:17;;;;;;;6.90;6.27;;;24.50;45.20;;;;;;5133941;27;20182;-51
2023/08/24 06:19:43;;;;;;;18.10;8.40;;;24.50;45.30;;;;;;5134080;27;20678;-52
2023/08/24 06:22:09;;;;;;;8.63;7.83;;;24.70;45.10;;;;;;5133980;27;20573;-56
2023/08/24 06:24:35;;;;;;;13.10;9.27;;;24.70;45.40;;;;;;5133746;27;20405;-51
2023/08/24 06:27:01;;;;;;;9.10;7.33;;;24.80;45.20;;;;;;5133639;27;20217;-54
2023/08/24 06:29:28;;;;;;;8.00;7.30;;;24.70;43.20;;;;;;5133836;28;20761;-54
2023/08/24 06:31:55;;;;;;;8.13;6.90;;;24.70;43.80;;;;;;5133798;27;20397;-52
2023/08/24 06:34:21;;;;;;;8.03;7.23;;;24.80;43.90;;;;;;5087826;27;1291380;-55
2023/08/24 06:36:47;;;;;;;7.90;7.13;;;24.80;43.80;;;;;;5134536;27;20419;-51
2023/08/24 06:39:13;;;;;;;9.90;7.60;;;24.90;43.90;;;;;;5134703;27;20174;-51
2023/08/24 06:41:39;;;;;;;11.60;6.70;;;25.00;43.20;;;;;;5134462;27;20422;-56
2023/08/24 06:44:05;;;;;;;7.27;6.57;;;25.00;42.50;;;;;;5134676;27;20410;-57
2023/08/24 06:46:31;;;;;;;7.03;6.33;;;24.90;41.80;;;;;;5134311;27;20229;-52
2023/08/24 06:48:57;;;;;;;7.90;6.93;;;24.90;41.70;;;;;;5134420;27;21040;-53
2023/08/24 06:51:23;;;;;;;11.10;7.00;;;24.80;42.30;;;;;;5134469;27;20404;-58
2023/08/24 06:53:48;;;;;;;7.30;6.63;;;24.80;42.00;;;;;;5134184;27;20166;-52
2023/08/24 06:56:14;;;;;;;7.90;7.20;;;24.80;42.30;;;;;;5133573;27;20186;-52
2023/08/24 06:58:40;;;;;;;7.80;7.00;;;25.00;42.90;;;;;;5134511;27;20257;-57
2023/08/24 07:01:07;;;;;;;7.30;6.70;;;25.00;41.90;;;;;;5134336;27;20488;-51
2023/08/24 07:03:33;;;;;;;7.80;7.10;;;25.00;41.50;;;;;;5134048;27;20457;-54
2023/08/24 07:05:59;;;;;;;9.80;7.53;;;25.10;42.60;;;;;;5133850;27;20416;-55
2023/08/24 07:08:25;;;;;;;6.83;6.33;;;25.20;43.30;;;;;;5134031;27;20404;-52
2023/08/24 07:10:51;;;;;;;11.47;6.60;;;25.40;43.10;;;;;;5133838;27;20418;-53
2023/08/24 07:13:16;;;;;;;7.07;6.37;;;25.50;42.90;;;;;;5133961;27;20174;-55
2023/08/24 07:15:42;;;;;;;8.60;7.13;;;25.70;41.70;;;;;;5133514;27;20231;-51
2023/08/24 07:18:08;;;;;;;7.30;6.70;;;25.70;41.10;;;;;;5133837;27;20656;-53
2023/08/24 07:20:35;;;;;;;7.33;6.50;;;25.80;41.70;;;;;;5134196;27;20449;-56
2023/08/24 07:23:01;;;;;;;7.30;6.57;;;25.90;42.10;;;;;;5133798;27;20415;-51
2023/08/24 07:25:30;;;;;;;6.97;6.37;;;26.00;42.40;;;;;;5133316;27;20405;-50
2023/08/24 07:27:58;;;;;;;7.20;6.50;;;26.20;42.00;;;;;;5133685;27;20909;-55
2023/08/24 07:30:27;;;;;;;7.67;7.00;;;26.20;42.00;;;;;;5133878;27;20448;-52
2023/08/24 07:32:53;;;;;;;7.57;6.07;;;26.40;42.20;;;;;;5133565;27;20408;-51
2023/08/24 07:35:20;;;;;;;6.93;6.43;;;26.50;42.60;;;;;;5133183;27;20456;-55
2023/08/24 07:37:47;;;;;;;9.07;6.30;;;26.70;42.40;;;;;;5133322;27;20401;-57
2023/08/24 07:40:14;;;;;;;6.60;5.90;;;26.70;42.40;;;;;;5133732;27;20778;-52
2023/08/24 07:42:45;;;;;;;7.10;6.43;;;26.90;41.50;;;;;;5133475;27;20403;-56
2023/08/24 07:45:11;;;;;;;9.97;5.87;;;27.00;41.60;;;;;;5133231;27;20460;-52
2023/08/24 07:47:37;;;;;;;7.30;6.10;;;27.00;40.90;;;;;;5133392;27;20770;-51
2023/08/24 07:50:03;;;;;;;6.80;6.10;;;27.10;41.40;;;;;;5133547;27;20970;-52
2023/08/24 07:52:29;;;;;;;8.17;5.97;;;27.20;41.80;;;;;;5133408;27;20408;-55
2023/08/24 07:54:59;;;;;;;5.30;4.90;;;27.40;41.70;;;;;;5132877;27;20983;-51
2023/08/24 07:57:26;;;;;;;12.00;6.60;;;27.50;41.40;;;;;;5133414;27;20435;-56
2023/08/24 07:59:52;;;;;;;9.30;5.90;;;27.60;41.00;;;;;;5133229;27;20411;-56
2023/08/24 08:02:18;;;;;;;5.63;5.10;;;27.70;40.20;;;;;;5133160;27;20404;-51
2023/08/24 08:04:44;;;;;;;7.60;5.63;;;27.70;39.20;;;;;;5132813;27;20404;-51
2023/08/24 08:07:09;;;;;;;7.30;5.60;;;27.70;38.70;;;;;;5132922;27;20469;-57
2023/08/24 08:09:37;;;;;;;5.10;4.47;;;27.70;39.30;;;;;;5133095;27;20596;-51
2023/08/24 08:12:03;;;;;;;7.37;5.80;;;27.80;39.50;;;;;;5133089;27;20571;-52
2023/08/24 08:14:29;;;;;;;8.47;5.43;;;27.90;40.30;;;;;;5132787;27;20518;-56
2023/08/24 08:16:56;;;;;;;6.30;5.70;;;27.90;37.80;;;;;;5132858;27;20941;-52
2023/08/24 08:19:22;;;;;;;8.93;5.10;;;28.00;39.00;;;;;;5132817;27;20402;-52
2023/08/24 08:21:47;;;;;;;9.60;4.80;;;28.10;39.90;;;;;;5133132;27;20613;-52
2023/08/24 08:24:13;;;;;;;8.97;5.20;;;28.20;40.40;;;;;;5132763;27;20647;-55
2023/08/24 08:26:39;;;;;;;7.93;5.67;;;28.40;40.80;;;;;;5132965;28;20186;-52
2023/08/24 08:29:05;;;;;;;8.60;5.23;;;28.60;40.60;;;;;;5133018;27;20186;-53
2023/08/24 08:31:31;;;;;;;5.33;4.93;;;28.60;39.10;;;;;;5132771;28;20170;-57
2023/08/24 08:33:57;;;;;;;6.97;5.00;;;28.70;38.00;;;;;;5132630;27;20404;-52
2023/08/24 08:36:22;;;;;;;10.00;5.83;;;28.70;37.30;;;;;;5132471;27;20824;-53
2023/08/24 08:38:49;;;;;;;6.83;6.20;;;28.80;38.80;;;;;;5132743;28;20174;-52
2023/08/24 08:41:17;;;;;;;9.27;5.23;;;28.80;38.60;;;;;;5133032;27;20170;-55
2023/08/24 08:43:43;;;;;;;9.03;4.93;;;28.90;39.40;;;;;;5132808;27;20399;-52
2023/08/24 08:46:09;;;;;;;6.50;4.77;;;29.00;39.70;;;;;;5132711;27;20452;-54
2023/08/24 08:48:36;;;;;;;6.30;5.63;;;29.10;38.70;;;;;;5132513;27;20489;-52
2023/08/24 08:51:02;;;;;;;6.53;5.63;;;29.20;39.10;;;;;;5132663;27;20424;-55
2023/08/24 08:53:28;;;;;;;5.47;4.40;;;29.30;38.20;;;;;;5132875;27;20443;-51
2023/08/24 08:55:57;;;;;;;5.70;4.20;;;29.40;38.80;;;;;;5132207;27;20474;-55
2023/08/24 08:58:24;;;;;;;4.60;4.13;;;29.50;39.20;;;;;;5132647;27;20405;-56
2023/08/24 09:00:52;;;;;;;4.73;4.03;;;29.60;39.30;;;;;;5132772;28;20408;-52
2023/08/24 09:03:19;;;;;;;4.57;3.90;;;29.70;37.40;;;;;;5132411;27;20408;-53
2023/08/24 09:05:47;;;;;;;5.43;3.93;;;29.60;34.40;;;;;;5132454;27;20420;-54
2023/08/24 09:08:17;;;;;;;4.93;3.83;;;29.60;34.40;;;;;;5132660;27;20769;-51
2023/08/24 09:10:43;;;;;;;4.73;3.57;;;29.70;36.00;;;;;;5132417;27;20772;-54
2023/08/24 09:13:09;;;;;;;3.70;3.20;;;29.70;33.80;;;;;;5132509;27;20396;-55
2023/08/24 09:15:36;;;;;;;5.63;3.90;;;29.70;35.40;;;;;;5131946;28;21043;-52
2023/08/24 09:18:03;;;;;;;5.20;3.50;;;29.90;36.30;;;;;;5133424;27;20174;-52
2023/08/24 09:20:29;;;;;;;4.53;3.80;;;29.90;34.20;;;;;;5136164;27;20414;-57
2023/08/24 09:22:57;;;;;;;5.90;4.20;;;30.00;36.80;;;;;;5136433;27;20493;-52
2023/08/24 09:25:23;;;;;;;5.20;4.03;;;30.10;35.50;;;;;;5136075;27;20403;-51
2023/08/24 09:28:08;;;;;;;5.23;4.37;;;30.20;36.90;;;;;;5135993;27;20926;-55
2023/08/24 09:30:37;;;;;;;5.47;3.97;;;30.30;37.00;;;;;;5136255;27;20809;-52
2023/08/24 09:33:08;;;;;;;6.40;4.40;;;30.40;34.70;;;;;;5135980;27;20403;-52
2023/08/24 09:35:36;;;;;;;5.90;4.80;;;30.30;33.50;;;;;;5135508;27;20465;-54
2023/08/24 09:38:18;;;;;;;4.90;4.20;;;30.40;33.50;;;;;;5135832;27;20409;-52
2023/08/24 09:40:51;;;;;;;6.20;3.30;;;30.50;34.70;;;;;;5135775;27;20388;-56
2023/08/24 09:43:17;;;;;;;5.17;3.70;;;30.60;34.20;;;;;;5135809;27;20731;-52
2023/08/24 09:45:56;;;;;;;5.57;3.77;;;30.70;34.50;;;;;;5135378;27;20443;-57
2023/08/24 09:48:23;;;;;;;3.67;3.33;;;30.80;33.60;;;;;;5135803;27;20242;-53
2023/08/24 09:50:50;;;;;;;6.10;4.10;;;30.80;34.00;;;;;;5135653;27;20774;-52
2023/08/24 09:53:22;;;;;;;8.43;4.20;;;30.90;34.30;;;;;;5135512;27;20415;-56
2023/08/24 09:56:01;;;;;;;4.53;4.13;;;31.00;35.30;;;;;;5135144;27;20445;-53
2023/08/24 09:58:28;;;;;;;5.60;4.07;;;31.10;35.40;;;;;;5135719;27;20399;-58
2023/08/24 10:00:55;;;;;;;6.77;3.90;;;31.20;32.80;;;;;;5135335;27;20434;-56
2023/08/24 10:03:25;;;;;;;4.83;4.43;;;31.20;33.70;;;;;;5135419;27;20396;-52
2023/08/24 10:05:53;;;;;;;6.40;3.70;;;31.20;33.40;;;;;;5134991;27;21018;-52
2023/08/24 10:08:29;;;;;;;4.73;3.70;;;31.20;32.30;;;;;;5135538;27;20491;-56
2023/08/24 10:10:58;;;;;;;4.83;3.90;;;31.20;31.70;;;;;;5135554;27;20388;-52
2023/08/24 10:13:40;;;;;;;4.43;3.27;;;31.20;33.40;;;;;;5135182;27;20969;-56
2023/08/24 10:16:07;;;;;;;8.23;4.33;;;31.20;33.20;;;;;;5134710;27;20455;-52
2023/08/24 10:18:33;;;;;;;4.47;4.07;;;31.20;33.80;;;;;;5135249;27;20404;-55
2023/08/24 10:21:01;;;;;;;4.20;3.90;;;31.20;33.50;;;;;;5135321;27;20430;-53
2023/08/24 10:23:29;;;;;;;5.53;4.57;;;31.20;32.30;;;;;;5135073;27;20415;-54
2023/08/24 10:25:55;;;;;;;5.93;3.80;;;31.20;33.20;;;;;;5134560;27;21033;-56
2023/08/24 10:28:27;;;;;;;5.00;3.80;;;31.20;31.80;;;;;;5134828;27;20418;-52
2023/08/24 10:30:55;;;;;;;5.80;4.20;;;31.20;32.90;;;;;;5133627;27;20936;-54
2023/08/24 10:33:22;;;;;;;7.03;3.97;;;31.30;32.90;;;;;;5134947;27;20479;-58
2023/08/24 10:35:48;;;;;;;6.17;4.27;;;31.30;32.70;;;;;;5134335;27;20459;-51
2023/08/24 10:38:28;;;;;;;4.57;3.80;;;31.30;32.40;;;;;;5134805;27;20404;-58
2023/08/24 10:40:54;;;;;;;7.00;4.17;;;31.30;32.60;;;;;;5134685;27;20950;-51
2023/08/24 10:43:22;;;;;;;5.17;4.30;;;31.30;32.80;;;;;;5134496;27;20403;-53
2023/08/24 10:45:59;;;;;;;7.93;4.20;;;31.40;32.70;;;;;;5134200;27;20966;-55
2023/08/24 10:48:29;;;;;;;4.17;3.47;;;31.40;31.50;;;;;;5134456;27;20778;-57
2023/08/24 10:51:16;;;;;;;3.90;3.57;;;31.40;32.20;;;;;;5134422;27;20457;-53
2023/08/24 10:53:45;;;;;;;5.30;4.13;;;31.40;31.90;;;;;;5134278;27;20412;-57
2023/08/24 10:56:16;;;;;;;6.57;3.50;;;31.30;29.90;;;;;;5134326;27;20416;-51
2023/08/24 10:58:43;;;;;;;9.63;3.40;;;31.40;29.60;;;;;;5134188;27;20484;-55
2023/08/24 11:01:16;;;;;;;6.03;3.90;;;31.40;29.40;;;;;;5134085;27;20800;-53
2023/08/24 11:03:46;;;;;;;11.60;4.23;;;31.50;31.40;;;;;;5134141;27;20376;-52
2023/08/24 11:06:23;;;;;;;4.53;4.13;;;31.50;30.80;;;;;;5133786;27;20490;-58
2023/08/24 11:08:49;;;;;;;4.23;3.60;;;31.40;30.20;;;;;;5134248;27;20735;-52
2023/08/24 11:11:22;;;;;;;4.63;3.60;;;31.40;29.70;;;;;;5134276;27;20400;-53
2023/08/24 11:14:26;;;;;;;4.17;3.77;;;31.40;31.80;;;;;;5133862;27;20395;-56
2023/08/24 11:16:53;;;;;;;7.20;4.27;;;31.40;32.20;;;;;;5129487;27;20466;-57
2023/08/24 11:19:19;;;;;;;4.93;3.73;;;31.40;32.10;;;;;;5134048;27;20423;-53
2023/08/24 11:21:46;;;;;;;7.17;4.00;;;31.30;31.80;;;;;;5134096;27;20400;-51
2023/08/24 11:24:13;;;;;;;4.03;3.63;;;31.30;32.00;;;;;;5133590;27;20403;-58
2023/08/24 11:26:41;;;;;;;4.43;4.03;;;31.30;30.40;;;;;;5133570;27;20513;-52
2023/08/24 11:29:07;;;;;;;5.83;4.00;;;31.30;31.60;;;;;;5133531;27;20419;-52
2023/08/24 11:31:34;;;;;;;4.63;4.00;;;31.30;32.40;;;;;;5133681;27;20401;-54
2023/08/24 11:34:00;;;;;;;6.30;4.07;;;31.50;32.30;;;;;;5133363;27;20634;-53
2023/08/24 11:36:27;;;;;;;4.53;3.77;;;31.60;32.80;;;;;;5133342;27;20412;-57
2023/08/24 11:38:57;;;;;;;7.40;4.17;;;31.70;32.50;;;;;;5133575;27;20178;-57
2023/08/24 11:41:22;;;;;;;4.90;3.87;;;31.70;31.60;;;;;;5133133;27;20399;-53
2023/08/24 11:43:50;;;;;;;6.27;4.13;;;31.70;31.10;;;;;;5133306;27;20438;-53
2023/08/24 11:46:18;;;;;;;10.03;3.90;;;31.70;30.60;;;;;;5133399;27;20190;-56
2023/08/24 11:48:45;;;;;;;7.20;4.73;;;31.70;31.30;;;;;;5133292;27;20404;-53
2023/08/24 11:51:12;;;;;;;4.17;3.77;;;31.70;30.40;;;;;;5133334;27;20411;-53
2023/08/24 11:53:40;;;;;;;8.33;4.13;;;31.70;28.90;;;;;;5133535;27;20422;-52
2023/08/24 11:56:12;;;;;;;5.07;3.43;;;31.70;30.20;;;;;;5132832;27;20518;-53
2023/08/24 11:58:41;;;;;;;4.60;4.07;;;31.70;29.60;;;;;;5133520;27;20404;-51
2023/08/24 12:01:09;;;;;;;3.90;2.93;;;31.70;29.80;;;;;;5133458;27;20403;-57
2023/08/24 12:03:38;;;;;;;4.73;3.80;;;31.60;30.00;;;;;;5133242;27;20407;-57
2023/08/24 12:06:15;;;;;;;13.27;4.57;;;31.50;30.20;;;;;;5132803;27;20428;-54
2023/08/24 12:08:42;;;;;;;5.47;4.27;;;31.50;30.70;;;;;;5132968;27;20396;-52
2023/08/24 12:11:20;;;;;;;6.50;3.13;;;31.40;31.10;;;;;;5133224;27;20473;-57
2023/08/24 12:13:49;;;;;;;4.73;3.80;;;31.40;30.90;;;;;;5132967;27;20892;-51
2023/08/24 12:16:16;;;;;;;4.90;3.80;;;31.40;31.30;;;;;;5132719;27;20434;-54
2023/08/24 12:19:00;;;;;;;8.43;3.67;;;31.30;31.10;;;;;;5133022;27;20392;-54
2023/08/24 12:21:26;;;;;;;4.23;3.83;;;31.30;31.30;;;;;;5132842;27;20412;-51
2023/08/24 12:23:55;;;;;;;7.40;3.33;;;31.20;30.90;;;;;;5132893;27;20893;-57
2023/08/24 12:26:21;;;;;;;7.70;3.63;;;31.30;30.60;;;;;;5132691;27;20418;-55
2023/08/24 12:28:54;;;;;;;7.53;3.10;;;31.30;30.40;;;;;;5133120;27;20419;-51
2023/08/24 12:31:20;;;;;;;5.90;3.90;;;31.30;29.80;;;;;;5132827;27;20388;-57
2023/08/24 12:33:57;;;;;;;3.97;3.00;;;31.50;29.70;;;;;;5132701;27;20489;-57
2023/08/24 12:36:23;;;;;;;5.13;4.10;;;31.50;30.80;;;;;;5132468;28;20210;-53
2023/08/24 12:38:49;;;;;;;6.40;4.47;;;31.70;31.00;;;;;;5132909;27;20404;-55
2023/08/24 12:41:15;;;;;;;5.73;3.40;;;31.80;29.50;;;;;;5133043;27;20166;-53
2023/08/24 12:43:40;;;;;;;5.40;3.47;;;31.80;29.90;;;;;;5133013;28;20567;-52
2023/08/24 12:46:06;;;;;;;8.10;4.30;;;31.80;30.10;;;;;;5132561;27;20192;-52
2023/08/24 12:48:32;;;;;;;12.60;5.20;;;31.70;30.90;;;;;;5132960;27;20185;-53